F/V Pasiphae 2 — FMFN — position and weather

sailwx.info

Track history (hours):
 
Tides and Currents Weather Stations Pressure Air Temp Water Temp Dewpoint Dewpoint Depression Visibility Wind Speed Wind Dir Waves Ship Positions

F/V Pasiphae 2

Last reported at 2016-Feb-06 02:33 UTC. Time now 2016-Feb-07 06:01 UTC.
Position N 47°44' W 003°22'.

Length 14 m.

Type: Fishing. MMSI: 228224800.

Date/timePositionNaut miles runAvg speedWind from/ knotsBaromVisibWave heightAir tempDewpointWater temp
2016-Feb-06 02:33N 47°44' W 003°22'0 0.0
2016-Feb-06 01:33N 47°44' W 003°22'8 8.0
2016-Feb-06 00:33N 47°36' W 003°23'9 8.8
2016-Feb-05 23:33N 47°27' W 003°24'9 8.6
2016-Feb-05 22:33N 47°18' W 003°23'2 0.0
2016-Feb-04 04:13N 47°20' W 003°23'6 9.2
2016-Feb-04 03:33N 47°26' W 003°23'9 9.4
2016-Feb-04 02:34N 47°35' W 003°23'8 8.3
2016-Feb-04 01:33N 47°44' W 003°22'2 2.5
2016-Feb-04 00:33N 47°41' W 003°22'9 8.8
2016-Feb-03 23:33N 47°33' W 003°22'9 8.5
2016-Feb-03 22:33N 47°24' W 003°22'9 8.4
2016-Feb-03 21:31N 47°15' W 003°22'5 0.1
2016-Feb-02 05:33N 47°20' W 003°22'9 8.6
2016-Feb-02 04:34N 47°28' W 003°22'9 8.6
2016-Feb-02 03:33N 47°37' W 003°22'7 6.7
2016-Feb-02 02:34N 47°44' W 003°22'4 3.8
2016-Feb-02 01:33N 47°40' W 003°22'9 8.7
2016-Feb-02 00:33N 47°31' W 003°23'8 8.3
2016-Feb-01 23:34N 47°23' W 003°22'9 8.7
2016-Feb-01 22:33N 47°14' W 003°22'25 3.4
2016-Feb-01 15:05N 46°50' W 003°14'21 3.0
2016-Feb-01 08:12N 47°08' W 003°27'2 3.5
2016-Feb-01 07:33N 47°06' W 003°26'3 2.4
2016-Feb-01 06:29N 47°08' W 003°23'11 5.8
2016-Feb-01 04:33N 47°19' W 003°24'9 8.5
2016-Feb-01 03:33N 47°27' W 003°23'9 8.7
2016-Feb-01 02:33N 47°36' W 003°23'8 0.2
2016-Jan-30 00:33N 47°44' W 003°22'8 8.3
2016-Jan-29 23:33N 47°35' W 003°23'6 6.2
2016-Jan-29 22:33N 47°32' W 003°30'4 3.8
2016-Jan-29 21:33N 47°28' W 003°31'4 3.6
2016-Jan-29 20:34N 47°25' W 003°28'4 3.8
2016-Jan-29 19:33N 47°22' W 003°28'4 4.1
2016-Jan-29 18:34N 47°18' W 003°25'6 0.2
2016-Jan-28 01:32N 47°19' W 003°34'9 8.8
2016-Jan-28 00:33N 47°26' W 003°29'9 8.9
2016-Jan-27 23:33N 47°34' W 003°23'9 9.2
2016-Jan-27 22:34N 47°44' W 003°22'1 0.7
2016-Jan-27 21:33N 47°43' W 003°22'8 8.3
2016-Jan-27 20:33N 47°35' W 003°21'8 8.2
2016-Jan-27 19:33N 47°27' W 003°19'1 0.9
2016-Jan-27 18:34N 47°26' W 003°18'1 1.4
2016-Jan-27 17:33N 47°25' W 003°17'7 1.1
2016-Jan-27 11:22N 47°18' W 003°21'1 0.7
2016-Jan-27 10:33N 47°18' W 003°22'  
Track history (hours):
 
Tides and Currents Weather Stations Pressure Air Temp Water Temp Dewpoint Dewpoint Depression Visibility Wind Speed Wind Dir Waves Ship Positions

F/V Pasiphae 2

Last reported at 2016-Feb-06 02:33 UTC. Time now 2016-Feb-07 06:01 UTC.
Position N 47°44' W 003°22'.

Length 14 m.

Type: Fishing. MMSI: 228224800.

Date/timePositionNaut miles runAvg speedWind from/ knotsBaromVisibWave heightAir tempDewpointWater temp
2016-Feb-06 02:33N 47°44' W 003°22'0 0.0
2016-Feb-06 01:33N 47°44' W 003°22'8 8.0
2016-Feb-06 00:33N 47°36' W 003°23'9 8.8
2016-Feb-05 23:33N 47°27' W 003°24'9 8.6
2016-Feb-05 22:33N 47°18' W 003°23'2 0.0
2016-Feb-04 04:13N 47°20' W 003°23'6 9.2
2016-Feb-04 03:33N 47°26' W 003°23'9 9.4
2016-Feb-04 02:34N 47°35' W 003°23'8 8.3
2016-Feb-04 01:33N 47°44' W 003°22'2 2.5
2016-Feb-04 00:33N 47°41' W 003°22'9 8.8
2016-Feb-03 23:33N 47°33' W 003°22'9 8.5
2016-Feb-03 22:33N 47°24' W 003°22'9 8.4
2016-Feb-03 21:31N 47°15' W 003°22'5 0.1
2016-Feb-02 05:33N 47°20' W 003°22'9 8.6
2016-Feb-02 04:34N 47°28' W 003°22'9 8.6
2016-Feb-02 03:33N 47°37' W 003°22'7 6.7
2016-Feb-02 02:34N 47°44' W 003°22'4 3.8
2016-Feb-02 01:33N 47°40' W 003°22'9 8.7
2016-Feb-02 00:33N 47°31' W 003°23'8 8.3
2016-Feb-01 23:34N 47°23' W 003°22'9 8.7
2016-Feb-01 22:33N 47°14' W 003°22'25 3.4
2016-Feb-01 15:05N 46°50' W 003°14'21 3.0
2016-Feb-01 08:12N 47°08' W 003°27'2 3.5
2016-Feb-01 07:33N 47°06' W 003°26'3 2.4
2016-Feb-01 06:29N 47°08' W 003°23'11 5.8
2016-Feb-01 04:33N 47°19' W 003°24'9 8.5
2016-Feb-01 03:33N 47°27' W 003°23'9 8.7
2016-Feb-01 02:33N 47°36' W 003°23'8 0.2
2016-Jan-30 00:33N 47°44' W 003°22'8 8.3
2016-Jan-29 23:33N 47°35' W 003°23'6 6.2
2016-Jan-29 22:33N 47°32' W 003°30'4 3.8
2016-Jan-29 21:33N 47°28' W 003°31'4 3.6
2016-Jan-29 20:34N 47°25' W 003°28'4 3.8
2016-Jan-29 19:33N 47°22' W 003°28'4 4.1
2016-Jan-29 18:34N 47°18' W 003°25'6 0.2
2016-Jan-28 01:32N 47°19' W 003°34'9 8.8
2016-Jan-28 00:33N 47°26' W 003°29'9 8.9
2016-Jan-27 23:33N 47°34' W 003°23'9 9.2
2016-Jan-27 22:34N 47°44' W 003°22'1 0.7
2016-Jan-27 21:33N 47°43' W 003°22'8 8.3
2016-Jan-27 20:33N 47°35' W 003°21'8 8.2
2016-Jan-27 19:33N 47°27' W 003°19'1 0.9
2016-Jan-27 18:34N 47°26' W 003°18'1 1.4
2016-Jan-27 17:33N 47°25' W 003°17'7 1.1
2016-Jan-27 11:22N 47°18' W 003°21'1 0.7
2016-Jan-27 10:33N 47°18' W 003°22'  

Dump ship's entire track history